Accueil
METAR-TAF:

METAR-TAF

Aéroports :

Pian Rosa, Italie

latitude: 45-56N, longitude: 007-42E, altitude: 3480 m

Observation

Le bulletin a été fait il y a 1 heure et 2 minutes, à 06:55 UTC
Vent 11 kt de est
Température -10°C
Humidité 92%
Pression 1033 hPa
Visibilité 10 km ou plus
Quelques nuages à une hauteur de 4000 ft

METAR: LIMH 210655Z 10011KT 9999 FEW040 M10/M11 Q1033 RMK FEW MON LIB VAL NIL VIS MIN 9999

Heure: 08:57 (07:57 UTC)


TAF: absent

Observations et prévisions météorologiques de plus de 4000 aéroports (messages METAR et TAF).

Les stations disponibles sont représentées par des disques jaunes et rouges sur la carte.

Passer la souris dessus pour voir le nom de la station.

Cliquer dessus pour voir les observations et prévisions météorologiques.

Pour changer de carte: cliquez sur les boutons verts avec une croix noire pour zoomer, sur le bouton vert avec un tiret pour effectuer un zoom arrière, ou sur les flèches vertes pour les cartes adjacentes.


METAR-TAF: